Aviation Digital Data Service (ADDS)

Output produced by METARs form (1752 UTC 24 March 2017)
found at http://www.aviationweather.gov/adds/metars/
 
OKBK 241700Z 11015KT 6000 TSRA SCT030CB BKN040 OVC080 19/18 Q1009 NOSIG
TAF OKBK 241645Z 2418/2524 15010G20KT 6000 FEW040 SCT080 
     TEMPO 2418/2503 1500 TSRA FEW025CB